Time,TemperatureF,DewpointF,PressureIn,WindDirection,WindDirectionDegrees,WindSpeedMPH,WindSpeedGustMPH,Humidity,HourlyPrecipIn,Conditions,Clouds,dailyrainin,SoftwareType,DateUTC
2013-09-30 00:14:00,56.0,52.0,30.06,East,84,0.0,2.0,87,0.00,,,0.00,,2013-09-30 04:14:00,
2013-09-30 00:25:00,55.0,51.0,30.06,East,84,1.0,2.0,87,0.00,,,0.00,,2013-09-30 04:25:00,
2013-09-30 00:44:00,55.0,51.0,30.06,East,84,0.0,1.0,87,0.00,,,0.00,,2013-09-30 04:44:00,
2013-09-30 00:53:00,54.0,51.0,30.06,East,84,0.0,0.0,90,0.00,,,0.00,,2013-09-30 04:53:00,
2013-09-30 01:23:00,54.0,51.0,30.06,East,84,0.0,1.0,89,0.00,,,0.00,,2013-09-30 05:23:00,
2013-09-30 01:43:00,54.0,51.0,30.06,East,84,0.0,0.0,91,0.00,,,0.00,,2013-09-30 05:43:00,
2013-09-30 01:52:00,54.0,51.0,30.06,East,84,0.0,0.0,91,0.00,,,0.00,,2013-09-30 05:52:00,
2013-09-30 02:12:00,53.0,50.0,30.06,East,84,0.0,0.0,91,0.00,,,0.00,,2013-09-30 06:12:00,
2013-09-30 02:22:00,53.0,51.0,30.05,East,84,0.0,0.0,92,0.00,,,0.00,,2013-09-30 06:22:00,
2013-09-30 02:52:00,53.0,51.0,30.04,East,84,0.0,0.0,93,0.00,,,0.00,,2013-09-30 06:52:00,
2013-09-30 03:12:00,52.0,50.0,30.04,East,84,0.0,0.0,93,0.00,,,0.00,,2013-09-30 07:12:00,
2013-09-30 03:22:00,52.0,50.0,30.03,East,84,0.0,0.0,94,0.00,,,0.00,,2013-09-30 07:22:00,
2013-09-30 03:52:00,52.0,50.0,30.03,East,84,0.0,1.0,94,0.00,,,0.00,,2013-09-30 07:52:00,
2013-09-30 04:12:00,52.0,51.0,30.04,East,84,0.0,0.0,95,0.00,,,0.00,,2013-09-30 08:12:00,
2013-09-30 04:22:00,53.0,52.0,30.04,East,84,0.0,0.0,95,0.00,,,0.00,,2013-09-30 08:22:00,
2013-09-30 04:52:00,52.0,50.0,30.04,NNW,348,0.0,1.0,93,0.00,,,0.00,,2013-09-30 08:52:00,
2013-09-30 05:12:00,51.0,49.0,30.05,North,5,0.0,0.0,92,0.00,,,0.00,,2013-09-30 09:12:00,
2013-09-30 05:22:00,50.0,48.0,30.05,North,5,0.0,0.0,93,0.00,,,0.00,,2013-09-30 09:22:00,
2013-09-30 05:53:00,50.0,48.0,30.05,North,5,0.0,0.0,94,0.00,,,0.00,,2013-09-30 09:53:00,
2013-09-30 06:13:00,50.0,49.0,30.06,North,5,0.0,0.0,96,0.00,,,0.00,,2013-09-30 10:13:00,
2013-09-30 06:23:00,51.0,50.0,30.06,North,5,0.0,1.0,96,0.00,,,0.00,,2013-09-30 10:23:00,
2013-09-30 06:53:00,52.0,51.0,30.06,North,5,0.0,0.0,95,0.00,,,0.00,,2013-09-30 10:53:00,
2013-09-30 07:12:00,52.0,51.0,30.06,North,5,0.0,0.0,95,0.00,,,0.00,,2013-09-30 11:12:00,
2013-09-30 07:22:00,52.0,51.0,30.06,North,5,0.0,0.0,96,0.00,,,0.00,,2013-09-30 11:22:00,
2013-09-30 07:52:00,52.0,50.0,30.06,ENE,59,0.0,1.0,94,0.00,,,0.00,,2013-09-30 11:52:00,
2013-09-30 08:12:00,53.0,51.0,30.06,ENE,59,0.0,1.0,94,0.00,,,0.00,,2013-09-30 12:12:00,
2013-09-30 08:22:00,53.0,52.0,30.06,ENE,59,0.0,0.0,95,0.00,,,0.00,,2013-09-30 12:22:00,
2013-09-30 08:52:00,56.0,54.0,30.06,East,84,0.0,2.0,93,0.00,,,0.00,,2013-09-30 12:52:00,
2013-09-30 09:12:00,58.0,55.0,30.06,East,84,0.0,1.0,90,0.00,,,0.00,,2013-09-30 13:12:00,
2013-09-30 09:22:00,60.0,57.0,30.06,East,92,0.0,2.0,89,0.00,,,0.00,,2013-09-30 13:22:00,
2013-09-30 09:42:00,60.0,55.0,30.06,SW,214,1.0,3.0,85,0.00,,,0.00,,2013-09-30 13:42:00,
2013-09-30 09:52:00,61.0,56.0,30.06,WSW,252,1.0,3.0,83,0.00,,,0.00,,2013-09-30 13:52:00,
2013-09-30 10:11:00,61.0,56.0,30.06,SSW,197,1.0,3.0,83,0.00,,,0.00,,2013-09-30 14:11:00,
2013-09-30 10:22:00,61.0,56.0,30.06,SW,231,0.0,2.0,83,0.00,,,0.00,,2013-09-30 14:22:00,
2013-09-30 10:52:00,63.0,56.0,30.06,WSW,246,1.0,3.0,77,0.00,,,0.00,,2013-09-30 14:52:00,
2013-09-30 11:11:00,65.0,56.0,30.06,WNW,282,0.0,3.0,72,0.00,,,0.00,,2013-09-30 15:11:00,
2013-09-30 11:23:00,66.0,55.0,30.06,SW,220,2.0,5.0,67,0.00,,,0.00,,2013-09-30 15:23:00,
2013-09-30 11:45:00,65.0,56.0,30.06,WNW,298,1.0,6.0,73,0.00,,,0.00,,2013-09-30 15:45:00,
2013-09-30 11:54:00,65.0,56.0,30.06,SSW,208,1.0,3.0,73,0.00,,,0.00,,2013-09-30 15:54:00,
2013-09-30 12:14:00,67.0,57.0,30.05,West,277,1.0,3.0,70,0.00,,,0.00,,2013-09-30 16:14:00,
2013-09-30 12:24:00,68.0,57.0,30.05,WNW,284,3.0,6.0,68,0.00,,,0.00,,2013-09-30 16:24:00,
2013-09-30 12:44:00,68.0,57.0,30.04,South,181,2.0,5.0,67,0.00,,,0.00,,2013-09-30 16:44:00,
2013-09-30 12:53:00,68.0,57.0,30.04,NW,315,3.0,6.0,67,0.00,,,0.00,,2013-09-30 16:53:00,
2013-09-30 13:13:00,69.0,57.0,30.04,South,181,2.0,5.0,66,0.00,,,0.00,,2013-09-30 17:13:00,
2013-09-30 13:23:00,70.0,58.0,30.03,WSW,241,1.0,3.0,65,0.00,,,0.00,,2013-09-30 17:23:00,
2013-09-30 13:53:00,70.0,55.0,30.02,NNW,331,3.0,7.0,59,0.00,,,0.00,,2013-09-30 17:53:00,
2013-09-30 14:12:00,72.0,54.0,30.01,WSW,242,2.0,5.0,53,0.00,,,0.00,,2013-09-30 18:12:00,
2013-09-30 14:22:00,72.0,55.0,30.01,WNW,290,7.0,10.0,56,0.00,,,0.00,,2013-09-30 18:22:00,
2013-09-30 14:53:00,72.0,55.0,30.00,West,269,3.0,7.0,56,0.00,,,0.00,,2013-09-30 18:53:00,
2013-09-30 15:12:00,72.0,54.0,30.00,WNW,302,3.0,6.0,54,0.00,,,0.00,,2013-09-30 19:12:00,
2013-09-30 15:22:00,73.0,54.0,29.99,SW,224,2.0,7.0,51,0.00,,,0.00,,2013-09-30 19:22:00,
2013-09-30 15:42:00,71.0,54.0,29.98,WNW,303,2.0,6.0,55,0.00,,,0.00,,2013-09-30 19:42:00,
2013-09-30 15:53:00,73.0,57.0,29.98,SSW,196,1.0,3.0,57,0.00,,,0.00,,2013-09-30 19:53:00,
2013-09-30 16:13:00,72.0,53.0,29.98,South,191,2.0,3.0,52,0.00,,,0.00,,2013-09-30 20:13:00,
2013-09-30 16:23:00,73.0,54.0,29.98,WSW,243,2.0,7.0,52,0.00,,,0.00,,2013-09-30 20:23:00,
2013-09-30 16:53:00,73.0,54.0,29.97,NNW,327,3.0,6.0,52,0.00,,,0.00,,2013-09-30 20:53:00,
2013-09-30 17:11:00,71.0,53.0,29.98,WNW,284,1.0,5.0,53,0.00,,,0.00,,2013-09-30 21:11:00,
2013-09-30 17:23:00,72.0,53.0,29.98,WNW,303,2.0,5.0,52,0.00,,,0.00,,2013-09-30 21:23:00,
2013-09-30 17:54:00,70.0,53.0,29.98,NW,309,1.0,3.0,54,0.00,,,0.00,,2013-09-30 21:54:00,
2013-09-30 18:24:00,70.0,54.0,29.98,SW,215,1.0,2.0,57,0.00,,,0.00,,2013-09-30 22:24:00,
2013-09-30 18:44:00,69.0,55.0,29.98,SW,215,0.0,0.0,60,0.00,,,0.00,,2013-09-30 22:44:00,
2013-09-30 18:54:00,68.0,55.0,29.98,SW,215,0.0,1.0,63,0.00,,,0.00,,2013-09-30 22:54:00,
2013-09-30 19:12:00,67.0,55.0,29.99,East,93,0.0,2.0,66,0.00,,,0.00,,2013-09-30 23:12:00,
2013-09-30 19:23:00,66.0,55.0,29.99,ENE,65,0.0,2.0,67,0.00,,,0.00,,2013-09-30 23:23:00,
2013-09-30 19:54:00,64.0,54.0,29.99,ENE,66,0.0,1.0,69,0.00,,,0.00,,2013-09-30 23:54:00,
2013-09-30 20:12:00,64.0,54.0,30.00,ENE,66,0.0,0.0,71,0.00,,,0.00,,2013-10-01 00:12:00,
2013-09-30 20:23:00,63.0,54.0,30.00,ENE,66,0.0,1.0,72,0.00,,,0.00,,2013-10-01 00:23:00,
2013-09-30 20:43:00,62.0,54.0,30.00,ENE,66,0.0,0.0,74,0.00,,,0.00,,2013-10-01 00:43:00,
2013-09-30 20:52:00,62.0,54.0,30.00,ENE,66,0.0,1.0,75,0.00,,,0.00,,2013-10-01 00:52:00,
2013-09-30 21:12:00,61.0,54.0,30.01,ENE,66,0.0,1.0,77,0.00,,,0.00,,2013-10-01 01:12:00,
2013-09-30 21:21:00,61.0,54.0,30.01,ENE,76,0.0,1.0,78,0.00,,,0.00,,2013-10-01 01:21:00,
2013-09-30 21:42:00,60.0,53.0,30.00,ENE,76,0.0,0.0,79,0.00,,,0.00,,2013-10-01 01:42:00,
2013-09-30 21:52:00,60.0,54.0,30.01,ENE,76,0.0,1.0,80,0.00,,,0.00,,2013-10-01 01:52:00,
2013-09-30 22:12:00,60.0,54.0,30.01,ENE,76,0.0,0.0,81,0.00,,,0.00,,2013-10-01 02:12:00,
2013-09-30 22:22:00,59.0,53.0,30.01,ENE,76,0.0,0.0,81,0.00,,,0.00,,2013-10-01 02:22:00,
2013-09-30 22:52:00,59.0,54.0,30.01,ENE,76,0.0,0.0,84,0.00,,,0.00,,2013-10-01 02:52:00,
2013-09-30 23:22:00,58.0,54.0,30.01,ENE,76,0.0,0.0,85,0.00,,,0.00,,2013-10-01 03:22:00,
2013-09-30 23:55:00,57.0,53.0,30.00,ENE,76,0.0,0.0,87,0.00,,,0.00,,2013-10-01 03:55:00,